sensor_id;sensor_type;location;lat;lon;timestamp;P1;durP1;ratioP1;P2;durP2;ratioP2
36213;SDS011;37652;50.400;30.628;2022-10-26T00:02:23;11.52;;;10.40;;
36213;SDS011;37652;50.400;30.628;2022-10-26T00:04:24;11.10;;;9.90;;
36213;SDS011;37652;50.400;30.628;2022-10-26T00:06:25;12.10;;;10.20;;
36213;SDS011;37652;50.400;30.628;2022-10-26T00:08:27;11.85;;;9.85;;
36213;SDS011;37652;50.400;30.628;2022-10-26T00:10:28;10.90;;;9.90;;
36213;SDS011;37652;50.400;30.628;2022-10-26T00:12:29;11.88;;;10.10;;
36213;SDS011;37652;50.400;30.628;2022-10-26T00:14:30;10.98;;;9.88;;
36213;SDS011;37652;50.400;30.628;2022-10-26T00:16:31;9.85;;;8.95;;
36213;SDS011;37652;50.400;30.628;2022-10-26T00:18:32;11.75;;;10.55;;
36213;SDS011;37652;50.400;30.628;2022-10-26T00:20:33;11.43;;;10.38;;
36213;SDS011;37652;50.400;30.628;2022-10-26T00:22:34;12.88;;;11.02;;
36213;SDS011;37652;50.400;30.628;2022-10-26T00:24:35;11.73;;;10.55;;
36213;SDS011;37652;50.400;30.628;2022-10-26T00:26:37;11.00;;;9.93;;
36213;SDS011;37652;50.400;30.628;2022-10-26T00:28:38;12.35;;;10.15;;
36213;SDS011;37652;50.400;30.628;2022-10-26T00:30:39;12.30;;;11.00;;
36213;SDS011;37652;50.400;30.628;2022-10-26T00:32:40;12.02;;;10.88;;
36213;SDS011;37652;50.400;30.628;2022-10-26T00:34:41;11.80;;;10.52;;
36213;SDS011;37652;50.400;30.628;2022-10-26T00:36:42;11.23;;;10.07;;
36213;SDS011;37652;50.400;30.628;2022-10-26T00:38:47;13.95;;;10.00;;
36213;SDS011;37652;50.400;30.628;2022-10-26T00:40:48;11.13;;;9.68;;
36213;SDS011;37652;50.400;30.628;2022-10-26T00:42:49;10.70;;;9.60;;
36213;SDS011;37652;50.400;30.628;2022-10-26T00:44:54;10.88;;;9.88;;
36213;SDS011;37652;50.400;30.628;2022-10-26T00:47:00;9.70;;;8.80;;
36213;SDS011;37652;50.400;30.628;2022-10-26T00:49:03;10.38;;;9.35;;
36213;SDS011;37652;50.400;30.628;2022-10-26T00:51:31;10.73;;;9.73;;
36213;SDS011;37652;50.400;30.628;2022-10-26T00:53:38;11.70;;;10.50;;
36213;SDS011;37652;50.400;30.628;2022-10-26T00:57:42;11.63;;;10.52;;
36213;SDS011;37652;50.400;30.628;2022-10-26T00:59:43;11.93;;;10.73;;
36213;SDS011;37652;50.400;30.628;2022-10-26T01:01:45;11.90;;;10.70;;
36213;SDS011;37652;50.400;30.628;2022-10-26T01:03:47;12.98;;;10.85;;
36213;SDS011;37652;50.400;30.628;2022-10-26T01:05:50;14.60;;;11.85;;
36213;SDS011;37652;50.400;30.628;2022-10-26T01:07:55;20.77;;;14.18;;
36213;SDS011;37652;50.400;30.628;2022-10-26T01:09:56;14.27;;;12.52;;
36213;SDS011;37652;50.400;30.628;2022-10-26T01:11:57;17.10;;;14.27;;
36213;SDS011;37652;50.400;30.628;2022-10-26T01:13:58;17.73;;;14.02;;
36213;SDS011;37652;50.400;30.628;2022-10-26T01:16:08;17.67;;;14.63;;
36213;SDS011;37652;50.400;30.628;2022-10-26T01:18:44;18.25;;;15.68;;
36213;SDS011;37652;50.400;30.628;2022-10-26T01:25:32;20.05;;;14.93;;
36213;SDS011;37652;50.400;30.628;2022-10-26T01:28:04;18.10;;;15.52;;
36213;SDS011;37652;50.400;30.628;2022-10-26T01:30:22;17.35;;;15.13;;
36213;SDS011;37652;50.400;30.628;2022-10-26T01:32:32;21.00;;;15.77;;
36213;SDS011;37652;50.400;30.628;2022-10-26T01:34:46;24.95;;;15.68;;
36213;SDS011;37652;50.400;30.628;2022-10-26T01:36:56;16.77;;;14.98;;
36213;SDS011;37652;50.400;30.628;2022-10-26T01:39:06;17.58;;;14.75;;
36213;SDS011;37652;50.400;30.628;2022-10-26T01:41:12;16.67;;;14.23;;
36213;SDS011;37652;50.400;30.628;2022-10-26T01:43:20;18.05;;;15.43;;
36213;SDS011;37652;50.400;30.628;2022-10-26T01:45:23;15.27;;;12.82;;
36213;SDS011;37652;50.400;30.628;2022-10-26T01:47:24;16.00;;;14.27;;
36213;SDS011;37652;50.400;30.628;2022-10-26T01:49:28;15.85;;;13.02;;
36213;SDS011;37652;50.400;30.628;2022-10-26T01:51:33;15.20;;;13.60;;
36213;SDS011;37652;50.400;30.628;2022-10-26T01:53:35;16.20;;;12.88;;
36213;SDS011;37652;50.400;30.628;2022-10-26T01:55:51;13.70;;;11.98;;
36213;SDS011;37652;50.400;30.628;2022-10-26T01:57:53;14.60;;;12.98;;
36213;SDS011;37652;50.400;30.628;2022-10-26T02:00:08;15.93;;;13.77;;
36213;SDS011;37652;50.400;30.628;2022-10-26T02:04:23;13.63;;;12.32;;
36213;SDS011;37652;50.400;30.628;2022-10-26T02:08:53;12.30;;;11.18;;
36213;SDS011;37652;50.400;30.628;2022-10-26T02:11:15;16.20;;;11.88;;
36213;SDS011;37652;50.400;30.628;2022-10-26T02:13:20;13.13;;;11.25;;
36213;SDS011;37652;50.400;30.628;2022-10-26T02:15:38;12.10;;;10.90;;
36213;SDS011;37652;50.400;30.628;2022-10-26T02:17:57;12.73;;;11.07;;
36213;SDS011;37652;50.400;30.628;2022-10-26T02:20:03;12.05;;;9.50;;
36213;SDS011;37652;50.400;30.628;2022-10-26T02:24:10;10.98;;;9.88;;
36213;SDS011;37652;50.400;30.628;2022-10-26T02:26:13;10.90;;;9.63;;
36213;SDS011;37652;50.400;30.628;2022-10-26T02:28:18;10.55;;;9.30;;
36213;SDS011;37652;50.400;30.628;2022-10-26T02:30:21;11.00;;;9.90;;
36213;SDS011;37652;50.400;30.628;2022-10-26T02:32:23;10.82;;;9.73;;
36213;SDS011;37652;50.400;30.628;2022-10-26T02:34:26;12.38;;;10.25;;
36213;SDS011;37652;50.400;30.628;2022-10-26T02:36:29;10.82;;;9.55;;
36213;SDS011;37652;50.400;30.628;2022-10-26T02:38:33;9.57;;;8.65;;
36213;SDS011;37652;50.400;30.628;2022-10-26T02:40:36;10.45;;;9.35;;
36213;SDS011;37652;50.400;30.628;2022-10-26T02:42:38;10.88;;;9.77;;
36213;SDS011;37652;50.400;30.628;2022-10-26T02:44:50;11.23;;;9.90;;
36213;SDS011;37652;50.400;30.628;2022-10-26T02:46:59;14.35;;;9.18;;
36213;SDS011;37652;50.400;30.628;2022-10-26T02:53:21;10.65;;;9.50;;
36213;SDS011;37652;50.400;30.628;2022-10-26T02:55:39;11.00;;;9.90;;
36213;SDS011;37652;50.400;30.628;2022-10-26T02:57:46;12.23;;;10.00;;
36213;SDS011;37652;50.400;30.628;2022-10-26T02:59:49;11.48;;;9.38;;
36213;SDS011;37652;50.400;30.628;2022-10-26T03:01:50;11.18;;;10.00;;
36213;SDS011;37652;50.400;30.628;2022-10-26T03:03:55;10.75;;;9.50;;
36213;SDS011;37652;50.400;30.628;2022-10-26T03:05:56;11.57;;;9.90;;
36213;SDS011;37652;50.400;30.628;2022-10-26T03:07:58;10.93;;;9.82;;
36213;SDS011;37652;50.400;30.628;2022-10-26T03:09:59;11.40;;;9.88;;
36213;SDS011;37652;50.400;30.628;2022-10-26T03:12:00;12.13;;;9.27;;
36213;SDS011;37652;50.400;30.628;2022-10-26T03:14:01;16.55;;;12.10;;
36213;SDS011;37652;50.400;30.628;2022-10-26T03:16:02;12.10;;;10.52;;
36213;SDS011;37652;50.400;30.628;2022-10-26T03:18:03;11.07;;;9.98;;
36213;SDS011;37652;50.400;30.628;2022-10-26T03:22:05;11.13;;;9.70;;
36213;SDS011;37652;50.400;30.628;2022-10-26T03:24:07;11.10;;;10.00;;
36213;SDS011;37652;50.400;30.628;2022-10-26T03:26:08;13.50;;;10.05;;
36213;SDS011;37652;50.400;30.628;2022-10-26T03:28:09;11.55;;;10.35;;
36213;SDS011;37652;50.400;30.628;2022-10-26T03:30:10;12.02;;;10.60;;
36213;SDS011;37652;50.400;30.628;2022-10-26T03:34:12;13.33;;;11.43;;
36213;SDS011;37652;50.400;30.628;2022-10-26T03:36:13;13.00;;;11.43;;
36213;SDS011;37652;50.400;30.628;2022-10-26T03:38:14;12.88;;;10.75;;
36213;SDS011;37652;50.400;30.628;2022-10-26T03:40:15;13.52;;;11.65;;
36213;SDS011;37652;50.400;30.628;2022-10-26T03:42:16;13.98;;;11.10;;
36213;SDS011;37652;50.400;30.628;2022-10-26T03:44:17;15.63;;;11.88;;
36213;SDS011;37652;50.400;30.628;2022-10-26T03:46:18;13.70;;;11.75;;
36213;SDS011;37652;50.400;30.628;2022-10-26T03:48:19;13.02;;;11.32;;
36213;SDS011;37652;50.400;30.628;2022-10-26T03:50:20;13.48;;;11.70;;
36213;SDS011;37652;50.400;30.628;2022-10-26T03:54:23;13.13;;;10.85;;
36213;SDS011;37652;50.400;30.628;2022-10-26T03:56:24;13.13;;;10.27;;
36213;SDS011;37652;50.400;30.628;2022-10-26T03:58:25;11.90;;;10.00;;
36213;SDS011;37652;50.400;30.628;2022-10-26T04:00:26;11.73;;;10.50;;
36213;SDS011;37652;50.400;30.628;2022-10-26T04:02:27;12.80;;;10.68;;
36213;SDS011;37652;50.400;30.628;2022-10-26T04:04:28;11.98;;;10.68;;
36213;SDS011;37652;50.400;30.628;2022-10-26T04:06:29;11.05;;;9.85;;
36213;SDS011;37652;50.400;30.628;2022-10-26T04:08:30;11.80;;;10.60;;
36213;SDS011;37652;50.400;30.628;2022-10-26T04:10:31;11.75;;;10.35;;
36213;SDS011;37652;50.400;30.628;2022-10-26T04:12:35;12.27;;;10.15;;
36213;SDS011;37652;50.400;30.628;2022-10-26T04:14:36;12.80;;;10.43;;
36213;SDS011;37652;50.400;30.628;2022-10-26T04:16:37;13.00;;;10.05;;
36213;SDS011;37652;50.400;30.628;2022-10-26T04:18:38;11.20;;;10.00;;
36213;SDS011;37652;50.400;30.628;2022-10-26T04:20:40;12.23;;;10.80;;
36213;SDS011;37652;50.400;30.628;2022-10-26T04:22:41;14.25;;;10.63;;
36213;SDS011;37652;50.400;30.628;2022-10-26T04:24:42;11.07;;;9.98;;
36213;SDS011;37652;50.400;30.628;2022-10-26T04:26:43;14.27;;;10.40;;
36213;SDS011;37652;50.400;30.628;2022-10-26T04:28:44;11.70;;;10.60;;
36213;SDS011;37652;50.400;30.628;2022-10-26T04:30:46;13.35;;;9.77;;
36213;SDS011;37652;50.400;30.628;2022-10-26T04:32:47;11.73;;;9.73;;
36213;SDS011;37652;50.400;30.628;2022-10-26T04:34:48;12.80;;;9.77;;
36213;SDS011;37652;50.400;30.628;2022-10-26T04:36:49;10.95;;;9.48;;
36213;SDS011;37652;50.400;30.628;2022-10-26T04:38:50;10.77;;;9.63;;
36213;SDS011;37652;50.400;30.628;2022-10-26T04:40:51;15.55;;;11.02;;
36213;SDS011;37652;50.400;30.628;2022-10-26T04:44:53;11.50;;;9.07;;
36213;SDS011;37652;50.400;30.628;2022-10-26T04:46:54;11.93;;;9.68;;
36213;SDS011;37652;50.400;30.628;2022-10-26T04:48:55;11.23;;;10.02;;
36213;SDS011;37652;50.400;30.628;2022-10-26T04:51:00;15.57;;;10.68;;
36213;SDS011;37652;50.400;30.628;2022-10-26T04:53:01;10.30;;;9.25;;
36213;SDS011;37652;50.400;30.628;2022-10-26T04:55:02;9.27;;;8.35;;
36213;SDS011;37652;50.400;30.628;2022-10-26T04:57:07;11.80;;;9.27;;
36213;SDS011;37652;50.400;30.628;2022-10-26T04:59:08;9.82;;;8.82;;
36213;SDS011;37652;50.400;30.628;2022-10-26T05:01:09;11.75;;;9.43;;
36213;SDS011;37652;50.400;30.628;2022-10-26T05:03:09;9.57;;;8.57;;
36213;SDS011;37652;50.400;30.628;2022-10-26T05:05:10;14.90;;;9.80;;
36213;SDS011;37652;50.400;30.628;2022-10-26T05:07:11;11.60;;;9.43;;
36213;SDS011;37652;50.400;30.628;2022-10-26T09:35:01;5.75;;;3.40;;
36213;SDS011;37652;50.400;30.628;2022-10-26T09:37:11;4.43;;;3.65;;
36213;SDS011;37652;50.400;30.628;2022-10-26T09:39:34;3.35;;;3.00;;
36213;SDS011;37652;50.400;30.628;2022-10-26T09:41:46;6.40;;;3.40;;
36213;SDS011;37652;50.400;30.628;2022-10-26T09:45:54;3.47;;;3.17;;
36213;SDS011;37652;50.400;30.628;2022-10-26T09:47:56;4.78;;;4.38;;
36213;SDS011;37652;50.400;30.628;2022-10-26T09:52:11;4.50;;;3.80;;
36213;SDS011;37652;50.400;30.628;2022-10-26T09:54:16;5.13;;;3.70;;
36213;SDS011;37652;50.400;30.628;2022-10-26T09:56:18;5.97;;;4.60;;
36213;SDS011;37652;50.400;30.628;2022-10-26T09:58:19;4.57;;;4.13;;
36213;SDS011;37652;50.400;30.628;2022-10-26T10:00:26;4.75;;;4.35;;
36213;SDS011;37652;50.400;30.628;2022-10-26T10:04:31;4.07;;;3.42;;
36213;SDS011;37652;50.400;30.628;2022-10-26T10:06:32;4.30;;;3.90;;
36213;SDS011;37652;50.400;30.628;2022-10-26T10:08:33;4.72;;;3.88;;
36213;SDS011;37652;50.400;30.628;2022-10-26T10:10:34;6.25;;;4.05;;
36213;SDS011;37652;50.400;30.628;2022-10-26T10:14:38;4.63;;;4.00;;
36213;SDS011;37652;50.400;30.628;2022-10-26T10:16:39;5.80;;;4.40;;
36213;SDS011;37652;50.400;30.628;2022-10-26T10:18:41;5.70;;;4.28;;
36213;SDS011;37652;50.400;30.628;2022-10-26T10:20:48;4.60;;;4.20;;
36213;SDS011;37652;50.400;30.628;2022-10-26T10:22:53;5.20;;;4.35;;
36213;SDS011;37652;50.400;30.628;2022-10-26T10:24:59;5.57;;;4.55;;
36213;SDS011;37652;50.400;30.628;2022-10-26T10:27:02;4.30;;;3.90;;
36213;SDS011;37652;50.400;30.628;2022-10-26T10:29:08;4.97;;;3.95;;
36213;SDS011;37652;50.400;30.628;2022-10-26T10:31:17;5.80;;;4.43;;
36213;SDS011;37652;50.400;30.628;2022-10-26T10:33:18;8.93;;;4.55;;
36213;SDS011;37652;50.400;30.628;2022-10-26T10:37:25;7.20;;;3.90;;
36213;SDS011;37652;50.400;30.628;2022-10-26T10:39:39;5.32;;;4.80;;
36213;SDS011;37652;50.400;30.628;2022-10-26T10:41:42;4.65;;;4.10;;
36213;SDS011;37652;50.400;30.628;2022-10-26T10:43:45;4.60;;;4.20;;
36213;SDS011;37652;50.400;30.628;2022-10-26T10:45:48;4.65;;;4.20;;
36213;SDS011;37652;50.400;30.628;2022-10-26T10:50:10;5.25;;;4.07;;
36213;SDS011;37652;50.400;30.628;2022-10-26T10:52:24;4.10;;;3.80;;
36213;SDS011;37652;50.400;30.628;2022-10-26T10:54:28;5.20;;;4.35;;
36213;SDS011;37652;50.400;30.628;2022-10-26T10:58:43;4.63;;;4.10;;
36213;SDS011;37652;50.400;30.628;2022-10-26T11:01:09;6.15;;;4.05;;
36213;SDS011;37652;50.400;30.628;2022-10-26T11:07:46;8.15;;;5.10;;
36213;SDS011;37652;50.400;30.628;2022-10-26T11:09:57;5.07;;;4.57;;
36213;SDS011;37652;50.400;30.628;2022-10-26T11:12:05;10.95;;;5.32;;
36213;SDS011;37652;50.400;30.628;2022-10-26T11:14:22;8.07;;;4.40;;
36213;SDS011;37652;50.400;30.628;2022-10-26T11:16:54;7.40;;;4.97;;
36213;SDS011;37652;50.400;30.628;2022-10-26T11:19:17;5.95;;;4.13;;
36213;SDS011;37652;50.400;30.628;2022-10-26T11:25:24;10.07;;;4.45;;
36213;SDS011;37652;50.400;30.628;2022-10-26T11:27:45;4.72;;;4.32;;
36213;SDS011;37652;50.400;30.628;2022-10-26T11:31:56;6.05;;;4.82;;
36213;SDS011;37652;50.400;30.628;2022-10-26T11:34:23;8.57;;;4.55;;
36213;SDS011;37652;50.400;30.628;2022-10-26T11:36:26;6.20;;;4.50;;
36213;SDS011;37652;50.400;30.628;2022-10-26T11:38:32;6.63;;;5.00;;
36213;SDS011;37652;50.400;30.628;2022-10-26T11:40:42;6.60;;;5.13;;
36213;SDS011;37652;50.400;30.628;2022-10-26T11:42:49;4.75;;;4.30;;
36213;SDS011;37652;50.400;30.628;2022-10-26T11:45:07;6.03;;;4.47;;
36213;SDS011;37652;50.400;30.628;2022-10-26T11:47:15;8.88;;;4.68;;
36213;SDS011;37652;50.400;30.628;2022-10-26T11:54:00;8.80;;;4.00;;
36213;SDS011;37652;50.400;30.628;2022-10-26T11:56:03;6.85;;;4.70;;
36213;SDS011;37652;50.400;30.628;2022-10-26T11:58:05;7.22;;;4.55;;
36213;SDS011;37652;50.400;30.628;2022-10-26T12:00:07;5.28;;;4.78;;
36213;SDS011;37652;50.400;30.628;2022-10-26T12:02:15;5.55;;;4.68;;
36213;SDS011;37652;50.400;30.628;2022-10-26T12:04:18;4.95;;;4.30;;
36213;SDS011;37652;50.400;30.628;2022-10-26T12:06:24;4.93;;;4.47;;
36213;SDS011;37652;50.400;30.628;2022-10-26T12:08:28;7.85;;;5.70;;
36213;SDS011;37652;50.400;30.628;2022-10-26T12:10:31;6.07;;;4.72;;
36213;SDS011;37652;50.400;30.628;2022-10-26T12:12:41;9.00;;;5.00;;
36213;SDS011;37652;50.400;30.628;2022-10-26T12:19:49;6.65;;;5.18;;
36213;SDS011;37652;50.400;30.628;2022-10-26T12:21:51;6.22;;;5.10;;
36213;SDS011;37652;50.400;30.628;2022-10-26T12:30:34;5.40;;;4.90;;
36213;SDS011;37652;50.400;30.628;2022-10-26T12:38:55;6.47;;;4.78;;
36213;SDS011;37652;50.400;30.628;2022-10-26T17:09:10;3.97;;;3.67;;
36213;SDS011;37652;50.400;30.628;2022-10-26T17:11:18;5.63;;;3.58;;
36213;SDS011;37652;50.400;30.628;2022-10-26T17:13:20;4.10;;;3.67;;
36213;SDS011;37652;50.400;30.628;2022-10-26T17:15:21;5.72;;;3.30;;
36213;SDS011;37652;50.400;30.628;2022-10-26T17:17:22;4.35;;;3.95;;
36213;SDS011;37652;50.400;30.628;2022-10-26T17:19:23;4.00;;;3.63;;
36213;SDS011;37652;50.400;30.628;2022-10-26T17:21:31;3.97;;;3.58;;
36213;SDS011;37652;50.400;30.628;2022-10-26T17:23:33;4.50;;;3.50;;
36213;SDS011;37652;50.400;30.628;2022-10-26T17:25:34;6.25;;;4.55;;
36213;SDS011;37652;50.400;30.628;2022-10-26T17:27:37;4.18;;;3.80;;
36213;SDS011;37652;50.400;30.628;2022-10-26T17:29:38;4.00;;;3.60;;
36213;SDS011;37652;50.400;30.628;2022-10-26T17:31:39;6.90;;;4.45;;
36213;SDS011;37652;50.400;30.628;2022-10-26T17:33:40;4.40;;;4.00;;
36213;SDS011;37652;50.400;30.628;2022-10-26T17:35:42;5.63;;;3.85;;
36213;SDS011;37652;50.400;30.628;2022-10-26T17:37:43;4.82;;;4.35;;
36213;SDS011;37652;50.400;30.628;2022-10-26T17:39:44;5.72;;;4.72;;
36213;SDS011;37652;50.400;30.628;2022-10-26T17:41:45;5.40;;;4.55;;
36213;SDS011;37652;50.400;30.628;2022-10-26T17:43:47;5.22;;;4.28;;
36213;SDS011;37652;50.400;30.628;2022-10-26T17:45:48;5.80;;;4.05;;
36213;SDS011;37652;50.400;30.628;2022-10-26T17:47:49;4.57;;;4.15;;
36213;SDS011;37652;50.400;30.628;2022-10-26T17:49:50;4.20;;;3.90;;
36213;SDS011;37652;50.400;30.628;2022-10-26T17:51:51;9.63;;;4.85;;
36213;SDS011;37652;50.400;30.628;2022-10-26T17:53:52;6.63;;;4.85;;
36213;SDS011;37652;50.400;30.628;2022-10-26T17:58:07;4.95;;;4.30;;
36213;SDS011;37652;50.400;30.628;2022-10-26T18:00:09;7.45;;;4.43;;
36213;SDS011;37652;50.400;30.628;2022-10-26T18:04:11;10.05;;;6.97;;
36213;SDS011;37652;50.400;30.628;2022-10-26T18:06:12;7.25;;;4.63;;
36213;SDS011;37652;50.400;30.628;2022-10-26T18:10:14;10.02;;;4.95;;
36213;SDS011;37652;50.400;30.628;2022-10-26T18:12:15;5.22;;;4.60;;
36213;SDS011;37652;50.400;30.628;2022-10-26T18:14:16;6.15;;;4.20;;
36213;SDS011;37652;50.400;30.628;2022-10-26T18:16:17;8.35;;;4.95;;
36213;SDS011;37652;50.400;30.628;2022-10-26T18:18:20;4.65;;;3.95;;
36213;SDS011;37652;50.400;30.628;2022-10-26T18:20:21;6.15;;;5.55;;
36213;SDS011;37652;50.400;30.628;2022-10-26T18:22:23;7.55;;;4.82;;
36213;SDS011;37652;50.400;30.628;2022-10-26T18:24:24;6.72;;;4.65;;
36213;SDS011;37652;50.400;30.628;2022-10-26T18:26:25;5.88;;;5.28;;
36213;SDS011;37652;50.400;30.628;2022-10-26T18:28:30;6.18;;;4.40;;
36213;SDS011;37652;50.400;30.628;2022-10-26T18:30:31;6.00;;;4.72;;
36213;SDS011;37652;50.400;30.628;2022-10-26T18:32:33;8.13;;;4.05;;
36213;SDS011;37652;50.400;30.628;2022-10-26T18:34:34;5.00;;;4.10;;
36213;SDS011;37652;50.400;30.628;2022-10-26T18:36:35;4.50;;;3.95;;
36213;SDS011;37652;50.400;30.628;2022-10-26T18:38:36;8.38;;;5.50;;
36213;SDS011;37652;50.400;30.628;2022-10-26T18:40:38;6.80;;;3.88;;
36213;SDS011;37652;50.400;30.628;2022-10-26T18:42:39;5.15;;;3.92;;
36213;SDS011;37652;50.400;30.628;2022-10-26T18:44:41;6.43;;;4.03;;
36213;SDS011;37652;50.400;30.628;2022-10-26T18:46:41;5.07;;;3.35;;
36213;SDS011;37652;50.400;30.628;2022-10-26T18:48:46;4.72;;;3.63;;
36213;SDS011;37652;50.400;30.628;2022-10-26T18:50:47;4.57;;;2.83;;
36213;SDS011;37652;50.400;30.628;2022-10-26T18:52:48;6.15;;;3.38;;
36213;SDS011;37652;50.400;30.628;2022-10-26T18:54:50;4.35;;;3.35;;
36213;SDS011;37652;50.400;30.628;2022-10-26T18:56:51;4.45;;;3.20;;
36213;SDS011;37652;50.400;30.628;2022-10-26T18:58:54;4.68;;;3.03;;
36213;SDS011;37652;50.400;30.628;2022-10-26T19:01:03;5.07;;;3.95;;
36213;SDS011;37652;50.400;30.628;2022-10-26T19:03:04;5.35;;;3.55;;
36213;SDS011;37652;50.400;30.628;2022-10-26T19:05:06;5.95;;;3.53;;
36213;SDS011;37652;50.400;30.628;2022-10-26T19:07:06;5.70;;;3.38;;
36213;SDS011;37652;50.400;30.628;2022-10-26T19:09:07;5.57;;;3.38;;
36213;SDS011;37652;50.400;30.628;2022-10-26T19:15:11;4.47;;;3.53;;
36213;SDS011;37652;50.400;30.628;2022-10-26T19:17:12;6.40;;;3.30;;
36213;SDS011;37652;50.400;30.628;2022-10-26T19:19:14;7.95;;;3.92;;
36213;SDS011;37652;50.400;30.628;2022-10-26T19:23:18;5.28;;;3.15;;
36213;SDS011;37652;50.400;30.628;2022-10-26T19:25:19;8.10;;;4.68;;
36213;SDS011;37652;50.400;30.628;2022-10-26T19:27:20;5.57;;;4.10;;
36213;SDS011;37652;50.400;30.628;2022-10-26T19:29:21;7.00;;;4.18;;
36213;SDS011;37652;50.400;30.628;2022-10-26T19:31:22;7.32;;;4.15;;
36213;SDS011;37652;50.400;30.628;2022-10-26T19:33:25;5.40;;;4.70;;
36213;SDS011;37652;50.400;30.628;2022-10-26T19:35:26;9.77;;;4.28;;
36213;SDS011;37652;50.400;30.628;2022-10-26T19:37:27;9.07;;;5.05;;
36213;SDS011;37652;50.400;30.628;2022-10-26T19:39:28;4.47;;;3.40;;
36213;SDS011;37652;50.400;30.628;2022-10-26T19:41:29;4.80;;;3.42;;
36213;SDS011;37652;50.400;30.628;2022-10-26T19:43:30;7.78;;;3.75;;
36213;SDS011;37652;50.400;30.628;2022-10-26T19:45:32;5.22;;;4.28;;
36213;SDS011;37652;50.400;30.628;2022-10-26T19:47:33;5.03;;;3.45;;
36213;SDS011;37652;50.400;30.628;2022-10-26T19:49:34;6.85;;;3.80;;
36213;SDS011;37652;50.400;30.628;2022-10-26T19:51:35;5.93;;;4.10;;
36213;SDS011;37652;50.400;30.628;2022-10-26T19:53:36;3.53;;;3.22;;
36213;SDS011;37652;50.400;30.628;2022-10-26T19:55:41;4.28;;;3.83;;
36213;SDS011;37652;50.400;30.628;2022-10-26T19:57:44;6.15;;;3.65;;
36213;SDS011;37652;50.400;30.628;2022-10-26T19:59:46;5.60;;;3.72;;
36213;SDS011;37652;50.400;30.628;2022-10-26T20:01:47;6.50;;;4.25;;
36213;SDS011;37652;50.400;30.628;2022-10-26T20:03:48;6.38;;;3.55;;
36213;SDS011;37652;50.400;30.628;2022-10-26T20:05:49;8.57;;;5.32;;
36213;SDS011;37652;50.400;30.628;2022-10-26T20:07:50;7.03;;;4.25;;
36213;SDS011;37652;50.400;30.628;2022-10-26T20:09:51;5.88;;;4.75;;
36213;SDS011;37652;50.400;30.628;2022-10-26T20:11:52;6.00;;;4.38;;
36213;SDS011;37652;50.400;30.628;2022-10-26T20:13:53;7.78;;;4.00;;
36213;SDS011;37652;50.400;30.628;2022-10-26T20:15:55;5.15;;;4.65;;
36213;SDS011;37652;50.400;30.628;2022-10-26T20:17:56;4.55;;;4.00;;
36213;SDS011;37652;50.400;30.628;2022-10-26T20:19:57;6.15;;;4.20;;
36213;SDS011;37652;50.400;30.628;2022-10-26T20:21:58;6.00;;;3.92;;
36213;SDS011;37652;50.400;30.628;2022-10-26T20:23:59;5.07;;;3.50;;
36213;SDS011;37652;50.400;30.628;2022-10-26T20:26:00;4.63;;;4.00;;
36213;SDS011;37652;50.400;30.628;2022-10-26T20:28:02;6.50;;;3.67;;
36213;SDS011;37652;50.400;30.628;2022-10-26T20:30:05;8.63;;;4.10;;
36213;SDS011;37652;50.400;30.628;2022-10-26T20:32:06;4.35;;;3.95;;
36213;SDS011;37652;50.400;30.628;2022-10-26T20:34:09;6.50;;;3.85;;
36213;SDS011;37652;50.400;30.628;2022-10-26T20:36:10;8.05;;;4.20;;
36213;SDS011;37652;50.400;30.628;2022-10-26T20:38:17;5.78;;;3.50;;
36213;SDS011;37652;50.400;30.628;2022-10-26T20:40:20;7.32;;;3.80;;
36213;SDS011;37652;50.400;30.628;2022-10-26T20:42:22;5.85;;;3.60;;
36213;SDS011;37652;50.400;30.628;2022-10-26T20:44:25;5.00;;;4.13;;
36213;SDS011;37652;50.400;30.628;2022-10-26T20:46:30;6.32;;;4.05;;
36213;SDS011;37652;50.400;30.628;2022-10-26T20:48:31;7.32;;;3.70;;
36213;SDS011;37652;50.400;30.628;2022-10-26T20:50:32;4.45;;;3.40;;
36213;SDS011;37652;50.400;30.628;2022-10-26T20:52:37;4.35;;;3.75;;
36213;SDS011;37652;50.400;30.628;2022-10-26T20:54:41;5.50;;;3.83;;
36213;SDS011;37652;50.400;30.628;2022-10-26T20:56:46;7.45;;;3.88;;
36213;SDS011;37652;50.400;30.628;2022-10-26T20:58:57;5.10;;;3.78;;
36213;SDS011;37652;50.400;30.628;2022-10-26T21:01:01;3.70;;;3.40;;
36213;SDS011;37652;50.400;30.628;2022-10-26T21:03:04;4.95;;;4.00;;
36213;SDS011;37652;50.400;30.628;2022-10-26T21:05:05;5.68;;;4.07;;
36213;SDS011;37652;50.400;30.628;2022-10-26T21:07:06;7.00;;;6.03;;
36213;SDS011;37652;50.400;30.628;2022-10-26T21:09:07;7.18;;;5.05;;
36213;SDS011;37652;50.400;30.628;2022-10-26T21:11:08;6.95;;;4.78;;
36213;SDS011;37652;50.400;30.628;2022-10-26T21:13:10;7.70;;;5.15;;
36213;SDS011;37652;50.400;30.628;2022-10-26T21:15:11;8.98;;;4.72;;
36213;SDS011;37652;50.400;30.628;2022-10-26T21:17:12;6.82;;;4.82;;
36213;SDS011;37652;50.400;30.628;2022-10-26T21:19:13;5.18;;;4.68;;
36213;SDS011;37652;50.400;30.628;2022-10-26T21:21:14;4.80;;;4.40;;
36213;SDS011;37652;50.400;30.628;2022-10-26T21:23:15;8.15;;;4.82;;
36213;SDS011;37652;50.400;30.628;2022-10-26T21:25:16;7.78;;;4.22;;
36213;SDS011;37652;50.400;30.628;2022-10-26T21:27:17;8.57;;;5.25;;
36213;SDS011;37652;50.400;30.628;2022-10-26T21:29:18;8.07;;;4.72;;
36213;SDS011;37652;50.400;30.628;2022-10-26T21:31:19;11.05;;;4.88;;
36213;SDS011;37652;50.400;30.628;2022-10-26T21:33:20;4.78;;;4.38;;
36213;SDS011;37652;50.400;30.628;2022-10-26T21:35:29;7.00;;;4.85;;
36213;SDS011;37652;50.400;30.628;2022-10-26T21:37:30;6.47;;;5.53;;
36213;SDS011;37652;50.400;30.628;2022-10-26T21:39:31;7.35;;;4.78;;
36213;SDS011;37652;50.400;30.628;2022-10-26T21:41:34;8.00;;;5.80;;
36213;SDS011;37652;50.400;30.628;2022-10-26T21:43:36;8.43;;;6.15;;
36213;SDS011;37652;50.400;30.628;2022-10-26T21:45:38;6.90;;;5.50;;
36213;SDS011;37652;50.400;30.628;2022-10-26T21:47:39;7.82;;;5.60;;
36213;SDS011;37652;50.400;30.628;2022-10-26T21:49:40;6.63;;;5.05;;
36213;SDS011;37652;50.400;30.628;2022-10-26T21:51:41;6.40;;;5.90;;
36213;SDS011;37652;50.400;30.628;2022-10-26T21:53:42;5.97;;;5.45;;
36213;SDS011;37652;50.400;30.628;2022-10-26T21:57:44;7.72;;;5.72;;
36213;SDS011;37652;50.400;30.628;2022-10-26T21:59:45;6.35;;;5.78;;
36213;SDS011;37652;50.400;30.628;2022-10-26T22:01:46;8.65;;;6.40;;
36213;SDS011;37652;50.400;30.628;2022-10-26T22:03:47;9.50;;;5.90;;
36213;SDS011;37652;50.400;30.628;2022-10-26T22:05:51;8.40;;;5.82;;
36213;SDS011;37652;50.400;30.628;2022-10-26T22:07:52;7.72;;;5.97;;
36213;SDS011;37652;50.400;30.628;2022-10-26T22:09:53;6.88;;;6.05;;
36213;SDS011;37652;50.400;30.628;2022-10-26T22:11:54;9.32;;;6.75;;
36213;SDS011;37652;50.400;30.628;2022-10-26T22:13:55;9.02;;;6.15;;
36213;SDS011;37652;50.400;30.628;2022-10-26T22:16:00;6.65;;;5.75;;
36213;SDS011;37652;50.400;30.628;2022-10-26T22:18:04;6.45;;;5.60;;
36213;SDS011;37652;50.400;30.628;2022-10-26T22:20:06;7.82;;;6.18;;
36213;SDS011;37652;50.400;30.628;2022-10-26T22:22:08;9.73;;;6.38;;
36213;SDS011;37652;50.400;30.628;2022-10-26T22:24:09;7.78;;;5.80;;
36213;SDS011;37652;50.400;30.628;2022-10-26T22:26:14;8.95;;;6.68;;
36213;SDS011;37652;50.400;30.628;2022-10-26T22:28:19;7.20;;;6.25;;
36213;SDS011;37652;50.400;30.628;2022-10-26T22:30:20;10.05;;;6.28;;